createdAt,value
2019-04-16T00:00:55.508Z,0.67
2019-04-16T00:04:36.548Z,0.30
2019-04-16T00:08:26.689Z,0.53
2019-04-16T00:11:44.449Z,0.50
2019-04-16T00:14:52.240Z,0.70
2019-04-16T00:18:08.889Z,0.17
2019-04-16T00:21:34.019Z,0.33
2019-04-16T00:24:58.458Z,0.30
2019-04-16T00:28:21.131Z,0.43
2019-04-16T00:31:28.649Z,0.43
2019-04-16T00:34:45.486Z,0.50
2019-04-16T00:37:51.683Z,0.80
2019-04-16T00:41:01.326Z,0.70
2019-04-16T00:44:18.083Z,0.67
2019-04-16T00:47:35.150Z,0.40
2019-04-16T00:50:51.611Z,0.70
2019-04-16T00:53:59.127Z,0.20
2019-04-16T00:57:18.038Z,0.70
2019-04-16T01:00:34.095Z,0.50
2019-04-16T01:03:50.882Z,0.37
2019-04-16T01:06:58.020Z,1.10
2019-04-16T01:10:05.521Z,0.50
2019-04-16T01:13:24.551Z,0.80
2019-04-16T01:16:40.568Z,0.20
2019-04-16T01:19:57.255Z,0.50
2019-04-16T01:23:04.634Z,0.70
2019-04-16T01:26:21.239Z,0.80
2019-04-16T01:29:28.394Z,0.60
2019-04-16T01:33:00.932Z,0.40
2019-04-16T01:36:20.306Z,0.63
2019-04-16T01:39:29.271Z,0.57
2019-04-16T01:42:36.545Z,1.00
2019-04-16T01:45:43.851Z,0.40
2019-04-16T01:48:51.220Z,0.73
2019-04-16T01:51:58.554Z,1.03
2019-04-16T01:55:05.113Z,0.43
2019-04-16T01:58:12.355Z,0.37
2019-04-16T02:01:19.739Z,0.63
2019-04-16T02:04:26.879Z,0.97
2019-04-16T02:07:34.186Z,0.50
2019-04-16T02:10:41.400Z,0.50
2019-04-16T02:13:48.611Z,0.83
2019-04-16T02:16:56.738Z,0.60
2019-04-16T02:20:13.336Z,0.40
2019-04-16T02:23:30.089Z,0.30
2019-04-16T02:26:46.787Z,0.70
2019-04-16T02:29:54.025Z,0.40
2019-04-16T02:33:01.348Z,0.47
2019-04-16T02:36:18.473Z,0.50
2019-04-16T02:39:47.609Z,0.23
2019-04-16T02:42:53.314Z,0.63
2019-04-16T02:45:59.631Z,0.90
2019-04-16T02:49:06.879Z,0.30
2019-04-16T02:52:23.277Z,0.70
2019-04-16T02:55:42.917Z,0.60
2019-04-16T02:58:54.092Z,0.80
2019-04-16T03:02:23.101Z,0.40
2019-04-16T03:05:35.023Z,0.30
2019-04-16T03:08:55.564Z,0.82
2019-04-16T03:12:03.046Z,0.30
2019-04-16T03:15:10.524Z,0.70
2019-04-16T03:18:19.323Z,0.43
2019-04-16T03:21:27.526Z,0.70
2019-04-16T03:24:37.539Z,0.70
2019-04-16T03:27:54.378Z,0.50
2019-04-16T03:31:07.349Z,0.33
2019-04-16T03:34:11.350Z,0.43
2019-04-16T03:37:18.476Z,0.43
2019-04-16T03:40:26.090Z,0.97
2019-04-16T03:43:42.634Z,0.53
2019-04-16T03:46:50.045Z,0.30
2019-04-16T03:50:07.504Z,0.97
2019-04-16T03:53:29.945Z,0.60
2019-04-16T03:56:37.247Z,0.57
2019-04-16T03:59:53.955Z,0.60
2019-04-16T04:03:01.330Z,0.30
2019-04-16T04:06:17.932Z,0.93
2019-04-16T04:09:34.719Z,0.50
2019-04-16T04:12:42.608Z,0.53
2019-04-16T04:16:01.648Z,0.70
2019-04-16T04:19:18.972Z,0.40
2019-04-16T04:22:26.654Z,0.47
2019-04-16T04:25:42.976Z,0.20
2019-04-16T04:28:51.589Z,0.70
2019-04-16T04:32:08.520Z,0.40
2019-04-16T04:35:20.371Z,0.50
2019-04-16T04:38:37.418Z,0.80
2019-04-16T04:41:43.019Z,0.73
2019-04-16T04:44:50.232Z,0.73
2019-04-16T04:48:11.031Z,0.60
2019-04-16T04:51:26.272Z,0.70
2019-04-16T04:54:33.847Z,0.60
2019-04-16T04:57:50.112Z,0.50
2019-04-16T05:00:57.504Z,0.80
2019-04-16T05:04:26.504Z,0.43
2019-04-16T05:07:33.627Z,0.50
2019-04-16T05:10:43.422Z,0.60
2019-04-16T05:13:49.848Z,0.80
2019-04-16T05:16:57.176Z,0.70
2019-04-16T05:20:04.603Z,0.77
2019-04-16T05:23:24.905Z,0.60
2019-04-16T05:26:39.875Z,0.70
2019-04-16T05:29:56.576Z,0.30
2019-04-16T05:33:13.477Z,0.50
2019-04-16T05:36:21.691Z,0.47
2019-04-16T05:39:29.281Z,0.77
2019-04-16T05:42:36.731Z,0.40
2019-04-16T05:45:42.330Z,0.30
2019-04-16T05:48:58.899Z,0.90
2019-04-16T05:52:06.243Z,0.47
2019-04-16T05:55:34.296Z,0.43
2019-04-16T05:59:10.607Z,0.80
2019-04-16T06:02:26.422Z,0.77
2019-04-16T06:05:33.543Z,0.60
2019-04-16T06:08:41.691Z,0.30
2019-04-16T06:11:48.904Z,0.77
2019-04-16T06:15:05.503Z,0.60
2019-04-16T06:18:29.718Z,0.80
2019-04-16T06:22:02.059Z,0.80
2019-04-16T06:25:41.444Z,0.60
2019-04-16T06:28:55.161Z,0.60
2019-04-16T06:32:48.672Z,0.73
2019-04-16T06:36:01.900Z,0.63
2019-04-16T06:39:42.466Z,0.63
2019-04-16T06:43:12.908Z,0.40
2019-04-16T06:46:40.519Z,0.70
2019-04-16T06:50:05.755Z,0.70
2019-04-16T06:53:30.989Z,0.80
2019-04-16T06:56:42.379Z,0.20
2019-04-16T07:00:14.450Z,0.40
2019-04-16T07:03:51.344Z,0.60
2019-04-16T07:07:39.901Z,1.07
2019-04-16T07:11:00.942Z,0.53
2019-04-16T07:14:21.964Z,0.77
2019-04-16T07:17:40.480Z,0.90
2019-04-16T07:20:57.061Z,0.60
2019-04-16T07:24:04.319Z,1.47
2019-04-16T07:27:10.858Z,0.60
2019-04-16T07:30:38.659Z,0.60
2019-04-16T07:34:24.952Z,0.90
2019-04-16T07:38:11.525Z,1.00
2019-04-16T07:42:07.767Z,0.90
2019-04-16T07:45:35.262Z,1.03
2019-04-16T07:49:04.699Z,0.70
2019-04-16T07:52:31.013Z,0.80
2019-04-16T07:55:49.455Z,0.63
2019-04-16T07:59:00.221Z,0.67
2019-04-16T08:02:05.877Z,0.77
2019-04-16T08:05:12.151Z,1.27
2019-04-16T08:08:28.787Z,0.60
2019-04-16T08:11:45.586Z,0.90
2019-04-16T08:14:52.227Z,1.00
2019-04-16T08:17:59.463Z,1.13
2019-04-16T08:21:12.104Z,1.17
2019-04-16T08:24:24.435Z,1.37
2019-04-16T08:27:29.371Z,1.10
2019-04-16T08:30:39.430Z,0.97
2019-04-16T08:33:45.603Z,1.17
2019-04-16T08:37:02.445Z,1.57
2019-04-16T08:40:19.196Z,0.87
2019-04-16T08:43:35.892Z,0.73
2019-04-16T08:46:43.221Z,0.93
2019-04-16T08:49:59.992Z,1.23
2019-04-16T08:53:16.694Z,0.67
2019-04-16T08:56:23.998Z,1.37
2019-04-16T08:59:42.601Z,1.00
2019-04-16T09:02:49.639Z,1.10
2019-04-16T09:06:06.751Z,1.00
2019-04-16T09:09:28.850Z,1.17
2019-04-16T09:12:40.672Z,0.93
2019-04-16T09:15:44.071Z,1.03
2019-04-16T09:18:59.855Z,1.47
2019-04-16T09:22:20.649Z,0.87
2019-04-16T09:25:52.457Z,1.07
2019-04-16T09:29:24.908Z,0.87
2019-04-16T09:32:52.811Z,1.33
2019-04-16T09:36:42.281Z,1.13
2019-04-16T09:40:17.569Z,1.20
2019-04-16T09:43:24.946Z,2.03
2019-04-16T09:46:50.463Z,1.50
2019-04-16T09:49:41.248Z,1.27
2019-04-16T09:52:48.419Z,1.40
2019-04-16T09:55:55.736Z,1.70
2019-04-16T09:59:05.907Z,1.50
2019-04-16T10:02:16.896Z,1.13
2019-04-16T10:05:26.509Z,1.43
2019-04-16T10:08:44.931Z,1.13
2019-04-16T10:12:01.033Z,1.33
2019-04-16T10:15:17.632Z,1.73
2019-04-16T10:18:35.131Z,1.67
2019-04-16T10:21:43.278Z,1.80
2019-04-16T10:25:17.787Z,1.40
2019-04-16T10:28:37.780Z,1.37
2019-04-16T10:31:55.183Z,1.50
2019-04-16T10:35:00.738Z,1.80
2019-04-16T10:38:24.169Z,1.70
2019-04-16T10:41:41.904Z,1.80
2019-04-16T10:44:59.244Z,1.00
2019-04-16T10:48:28.751Z,1.63
2019-04-16T10:51:54.971Z,1.60
2019-04-16T10:55:36.611Z,1.80
2019-04-16T10:58:59.866Z,1.10
2019-04-16T11:02:28.835Z,1.67
2019-04-16T11:05:42.337Z,2.13
2019-04-16T11:08:49.608Z,1.37
2019-04-16T11:11:56.888Z,2.47
2019-04-16T11:15:04.241Z,1.87
2019-04-16T11:18:11.728Z,2.10
2019-04-16T11:21:19.030Z,1.40
2019-04-16T11:24:25.196Z,1.40
2019-04-16T11:27:43.738Z,1.77
2019-04-16T11:31:03.026Z,1.73
2019-04-16T11:34:11.548Z,2.20
2019-04-16T11:37:18.831Z,1.90
2019-04-16T11:40:26.065Z,1.90
2019-04-16T11:43:33.445Z,1.67
2019-04-16T11:46:40.758Z,1.83
2019-04-16T11:49:48.010Z,1.70
2019-04-16T11:52:58.400Z,2.13
2019-04-16T11:56:04.585Z,1.93
2019-04-16T11:59:21.264Z,1.90
2019-04-16T12:02:51.008Z,1.93
2019-04-16T12:06:27.752Z,1.63
2019-04-16T12:09:34.356Z,1.93
2019-04-16T12:13:32.716Z,1.67
2019-04-16T12:17:05.421Z,1.73
2019-04-16T12:20:22.870Z,1.37
2019-04-16T12:23:43.429Z,1.60
2019-04-16T12:27:12.954Z,1.47
2019-04-16T12:30:59.067Z,1.97
2019-04-16T12:34:30.198Z,1.70
2019-04-16T12:37:55.283Z,1.50
2019-04-16T12:41:40.780Z,1.40
2019-04-16T12:45:00.717Z,0.93
2019-04-16T12:48:42.347Z,1.20
2019-04-16T12:52:40.723Z,1.87
2019-04-16T12:56:07.742Z,1.27
2019-04-16T12:59:23.020Z,1.53
2019-04-16T13:03:04.381Z,1.13
2019-04-16T13:06:16.144Z,1.60
2019-04-16T13:09:53.926Z,1.47
2019-04-16T13:13:18.940Z,1.70
2019-04-16T13:16:52.760Z,1.47
2019-04-16T13:20:29.534Z,1.53
2019-04-16T13:23:41.299Z,1.85
2019-04-16T13:27:16.635Z,1.30
2019-04-16T13:30:24.294Z,1.80
2019-04-16T13:33:31.495Z,1.77
2019-04-16T13:36:38.930Z,1.87
2019-04-16T13:40:20.807Z,1.47
2019-04-16T13:43:33.791Z,1.40
2019-04-16T13:47:03.601Z,1.50
2019-04-16T13:50:17.730Z,1.30
2019-04-16T13:54:00.330Z,1.70
2019-04-16T13:57:13.610Z,1.87
2019-04-16T14:00:43.213Z,1.50
2019-04-16T14:03:48.763Z,1.57
2019-04-16T14:06:55.987Z,1.40
2019-04-16T14:10:03.497Z,1.30
2019-04-16T14:13:13.476Z,1.60
2019-04-16T14:16:19.627Z,1.23
2019-04-16T14:19:26.855Z,1.67
2019-04-16T14:22:43.833Z,1.40
2019-04-16T14:26:00.746Z,1.30
2019-04-16T14:29:17.792Z,1.17
2019-04-16T14:32:34.303Z,1.40
2019-04-16T14:35:51.221Z,1.10
2019-04-16T14:39:19.718Z,0.90
2019-04-16T14:42:27.189Z,0.60
2019-04-16T14:45:58.246Z,0.83
2019-04-16T14:49:08.158Z,0.90
2019-04-16T14:52:15.393Z,1.00
2019-04-16T14:55:59.833Z,0.90
2019-04-16T14:59:10.470Z,0.87
2019-04-16T15:02:40.463Z,0.60
2019-04-16T15:06:01.403Z,0.87
2019-04-16T15:09:33.464Z,1.00
2019-04-16T15:13:08.522Z,1.20
2019-04-16T15:17:12.214Z,1.00
2019-04-16T15:20:48.826Z,0.93
2019-04-16T15:24:25.697Z,0.90
2019-04-16T15:28:03.943Z,0.87
2019-04-16T15:31:43.424Z,0.73
2019-04-16T15:34:50.956Z,0.80
2019-04-16T15:38:02.956Z,1.30
2019-04-16T15:41:28.105Z,0.50
2019-04-16T15:48:38.409Z,0.97
2019-04-16T15:52:04.687Z,1.00
2019-04-16T15:55:30.950Z,1.17
2019-04-16T15:59:03.211Z,0.90
2019-04-16T16:02:47.166Z,1.23
2019-04-16T16:05:59.672Z,1.60
2019-04-16T16:09:31.308Z,1.40
2019-04-16T16:12:38.531Z,1.50
2019-04-16T16:15:45.873Z,1.33
2019-04-16T16:18:53.165Z,1.33
2019-04-16T16:22:00.463Z,1.77
2019-04-16T16:25:17.283Z,1.00
2019-04-16T16:28:34.099Z,1.77
2019-04-16T16:31:41.347Z,1.83
2019-04-16T16:34:58.140Z,1.40
2019-04-16T16:38:15.018Z,1.50
2019-04-16T16:41:22.382Z,1.23
2019-04-16T16:44:39.045Z,1.67
2019-04-16T16:47:46.269Z,1.57
2019-04-16T16:50:53.547Z,1.83
2019-04-16T16:54:16.763Z,1.67
2019-04-16T16:57:41.995Z,1.50
2019-04-16T17:01:01.679Z,2.17
2019-04-16T17:04:31.963Z,2.27
2019-04-16T17:07:39.336Z,1.90
2019-04-16T17:10:46.645Z,1.70
2019-04-16T17:14:03.522Z,2.07
2019-04-16T17:17:20.264Z,1.27
2019-04-16T17:20:38.403Z,1.57
2019-04-16T17:23:55.630Z,1.20
2019-04-16T17:27:12.323Z,1.43
2019-04-16T17:30:19.535Z,1.37
2019-04-16T17:33:36.339Z,1.53
2019-04-16T17:36:53.611Z,1.07
2019-04-16T17:40:08.741Z,1.40
2019-04-16T17:43:41.588Z,1.90
2019-04-16T17:47:19.453Z,1.60
2019-04-16T17:50:30.403Z,1.87
2019-04-16T17:53:46.372Z,1.70
2019-04-16T17:57:10.275Z,0.90
2019-04-16T18:00:34.699Z,1.20
2019-04-16T18:04:10.426Z,1.50
2019-04-16T18:07:55.013Z,1.33
2019-04-16T18:11:10.032Z,0.90
2019-04-16T18:14:48.771Z,1.03
2019-04-16T18:18:06.781Z,1.60
2019-04-16T18:21:55.773Z,1.27
2019-04-16T18:25:37.933Z,1.35
2019-04-16T18:28:54.475Z,1.13
2019-04-16T18:32:30.853Z,1.40
2019-04-16T18:36:14.171Z,1.70
2019-04-16T18:39:31.111Z,2.20
2019-04-16T18:42:51.263Z,1.43
2019-04-16T18:46:21.468Z,1.10
2019-04-16T18:49:46.885Z,1.50
2019-04-16T18:52:54.161Z,1.30
2019-04-16T18:56:01.421Z,1.10
2019-04-16T18:59:08.652Z,0.70
2019-04-16T19:02:15.880Z,1.10
2019-04-16T19:05:23.243Z,1.37
2019-04-16T19:08:41.719Z,1.07
2019-04-16T19:11:49.462Z,1.20
2019-04-16T19:15:06.206Z,1.03
2019-04-16T19:18:19.625Z,0.67
2019-04-16T19:21:31.635Z,1.10
2019-04-16T19:24:38.762Z,0.87
2019-04-16T19:27:48.865Z,1.33
2019-04-16T19:30:55.505Z,1.17
2019-04-16T19:34:09.047Z,1.50
2019-04-16T19:37:11.724Z,0.83
2019-04-16T19:40:19.622Z,1.37
2019-04-16T19:43:28.417Z,1.27
2019-04-16T19:46:45.448Z,1.30
2019-04-16T19:49:54.048Z,1.10
2019-04-16T19:53:01.583Z,1.37
2019-04-16T19:56:18.652Z,0.83
2019-04-16T19:59:26.831Z,1.03
2019-04-16T20:02:34.104Z,1.37
2019-04-16T20:05:41.351Z,1.20
2019-04-16T20:08:58.052Z,0.60
2019-04-16T20:12:05.416Z,0.90
2019-04-16T20:15:28.039Z,0.97
2019-04-16T20:18:49.989Z,1.03
2019-04-16T20:21:53.617Z,1.13
2019-04-16T20:25:01.238Z,0.93
2019-04-16T20:28:17.626Z,1.03
2019-04-16T20:31:25.163Z,0.77
2019-04-16T20:34:42.366Z,1.27
2019-04-16T20:38:00.122Z,0.80
2019-04-16T20:41:07.330Z,1.23
2019-04-16T20:44:24.146Z,1.10
2019-04-16T20:47:40.871Z,0.97
2019-04-16T20:50:52.755Z,1.70
2019-04-16T20:54:06.603Z,0.90
2019-04-16T20:57:25.647Z,1.53
2019-04-16T21:00:44.709Z,0.97
2019-04-16T21:04:04.664Z,1.10
2019-04-16T21:07:07.137Z,1.40
2019-04-16T21:10:14.581Z,1.23
2019-04-16T21:13:21.802Z,1.70
2019-04-16T21:16:33.471Z,1.00
2019-04-16T21:19:48.089Z,1.27
2019-04-16T21:22:57.522Z,1.30
2019-04-16T21:26:04.262Z,1.70
2019-04-16T21:29:36.596Z,0.80
2019-04-16T21:33:21.076Z,1.17
2019-04-16T21:36:37.952Z,0.60
2019-04-16T21:39:52.906Z,1.87
2019-04-16T21:43:00.195Z,1.27
2019-04-16T21:46:07.705Z,1.23
2019-04-16T21:49:15.123Z,1.53
2019-04-16T21:52:23.117Z,1.10
2019-04-16T21:55:32.879Z,1.00
2019-04-16T21:58:39.435Z,1.37
2019-04-16T22:01:46.737Z,1.10
2019-04-16T22:04:53.317Z,1.07
2019-04-16T22:08:09.893Z,0.80
2019-04-16T22:11:26.635Z,1.10
2019-04-16T22:14:43.430Z,1.27
2019-04-16T22:17:50.667Z,1.10
2019-04-16T22:20:57.975Z,1.20
2019-04-16T22:24:14.643Z,0.83
2019-04-16T22:27:21.866Z,0.70
2019-04-16T22:30:29.226Z,0.83
2019-04-16T22:33:45.887Z,1.07
2019-04-16T22:37:02.671Z,1.00
2019-04-16T22:40:23.661Z,1.40
2019-04-16T22:43:48.710Z,1.10
2019-04-16T22:46:59.882Z,1.23
2019-04-16T22:50:27.008Z,2.33
2019-04-16T22:53:34.237Z,1.37
2019-04-16T22:57:08.346Z,1.50
2019-04-16T23:00:26.278Z,0.90
2019-04-16T23:03:33.574Z,0.93
2019-04-16T23:06:40.846Z,1.27
2019-04-16T23:09:48.689Z,1.03
2019-04-16T23:13:00.326Z,1.07
2019-04-16T23:16:15.834Z,1.33
2019-04-16T23:19:32.526Z,1.57
2019-04-16T23:22:39.758Z,0.87
2019-04-16T23:25:47.003Z,1.47
2019-04-16T23:28:54.150Z,1.00
2019-04-16T23:32:11.054Z,1.00
2019-04-16T23:35:27.727Z,1.73
2019-04-16T23:38:34.958Z,0.70
2019-04-16T23:41:42.246Z,0.90
2019-04-16T23:45:08.963Z,1.03
2019-04-16T23:49:04.237Z,1.30
2019-04-16T23:52:17.670Z,1.10
2019-04-16T23:55:51.906Z,1.20
2019-04-16T23:59:18.208Z,0.90
